sensor_id;sensor_type;location;lat;lon;timestamp;temperature;humidity
43920;DHT22;29578;51.946;5.874;2022-12-26T00:01:36;9.40;94.20
43920;DHT22;29578;51.946;5.874;2022-12-26T00:04:02;9.50;94.50
43920;DHT22;29578;51.946;5.874;2022-12-26T00:06:29;9.40;94.20
43920;DHT22;29578;51.946;5.874;2022-12-26T00:08:56;9.40;94.20
43920;DHT22;29578;51.946;5.874;2022-12-26T00:11:22;9.50;94.50
43920;DHT22;29578;51.946;5.874;2022-12-26T00:13:57;9.50;94.20
43920;DHT22;29578;51.946;5.874;2022-12-26T00:16:24;9.50;94.20
43920;DHT22;29578;51.946;5.874;2022-12-26T00:18:51;9.50;94.20
43920;DHT22;29578;51.946;5.874;2022-12-26T00:21:20;9.50;94.20
43920;DHT22;29578;51.946;5.874;2022-12-26T00:23:48;9.50;94.20
43920;DHT22;29578;51.946;5.874;2022-12-26T00:26:17;9.50;94.20
43920;DHT22;29578;51.946;5.874;2022-12-26T00:28:43;9.50;94.20
43920;DHT22;29578;51.946;5.874;2022-12-26T00:31:13;9.50;94.20
43920;DHT22;29578;51.946;5.874;2022-12-26T00:33:39;9.50;94.20
43920;DHT22;29578;51.946;5.874;2022-12-26T00:36:08;9.50;94.20
43920;DHT22;29578;51.946;5.874;2022-12-26T00:38:35;9.60;94.20
43920;DHT22;29578;51.946;5.874;2022-12-26T00:41:01;9.50;94.20
43920;DHT22;29578;51.946;5.874;2022-12-26T00:43:27;9.60;94.20
43920;DHT22;29578;51.946;5.874;2022-12-26T00:45:53;9.50;94.20
43920;DHT22;29578;51.946;5.874;2022-12-26T00:48:18;9.60;94.20
43920;DHT22;29578;51.946;5.874;2022-12-26T00:50:44;9.50;94.20
43920;DHT22;29578;51.946;5.874;2022-12-26T00:53:09;9.60;94.20
43920;DHT22;29578;51.946;5.874;2022-12-26T00:55:35;9.60;94.20
43920;DHT22;29578;51.946;5.874;2022-12-26T00:58:01;9.50;94.20
43920;DHT22;29578;51.946;5.874;2022-12-26T01:00:26;9.60;94.20
43920;DHT22;29578;51.946;5.874;2022-12-26T01:02:52;9.60;94.20
43920;DHT22;29578;51.946;5.874;2022-12-26T01:05:18;9.60;94.20
43920;DHT22;29578;51.946;5.874;2022-12-26T01:07:43;9.50;94.20
43920;DHT22;29578;51.946;5.874;2022-12-26T01:10:11;9.60;94.20
43920;DHT22;29578;51.946;5.874;2022-12-26T01:12:37;9.60;94.20
43920;DHT22;29578;51.946;5.874;2022-12-26T01:15:04;9.60;94.20
43920;DHT22;29578;51.946;5.874;2022-12-26T01:17:30;9.60;94.20
43920;DHT22;29578;51.946;5.874;2022-12-26T01:20:01;9.60;94.20
43920;DHT22;29578;51.946;5.874;2022-12-26T01:22:27;9.60;94.20
43920;DHT22;29578;51.946;5.874;2022-12-26T01:24:55;9.60;94.20
43920;DHT22;29578;51.946;5.874;2022-12-26T01:27:21;9.70;94.20
43920;DHT22;29578;51.946;5.874;2022-12-26T01:29:47;9.60;94.20
43920;DHT22;29578;51.946;5.874;2022-12-26T01:32:13;9.60;94.20
43920;DHT22;29578;51.946;5.874;2022-12-26T01:34:40;9.60;94.20
43920;DHT22;29578;51.946;5.874;2022-12-26T01:37:05;9.60;94.50
43920;DHT22;29578;51.946;5.874;2022-12-26T01:39:31;9.60;94.20
43920;DHT22;29578;51.946;5.874;2022-12-26T01:41:57;9.50;94.20
43920;DHT22;29578;51.946;5.874;2022-12-26T01:47:20;9.60;94.20
43920;DHT22;29578;51.946;5.874;2022-12-26T01:49:51;9.60;94.30
43920;DHT22;29578;51.946;5.874;2022-12-26T01:52:27;9.60;94.30
43920;DHT22;29578;51.946;5.874;2022-12-26T01:54:54;9.60;94.20
43920;DHT22;29578;51.946;5.874;2022-12-26T01:57:24;9.60;94.30
43920;DHT22;29578;51.946;5.874;2022-12-26T01:59:53;9.60;94.30
43920;DHT22;29578;51.946;5.874;2022-12-26T02:02:20;9.50;94.30
43920;DHT22;29578;51.946;5.874;2022-12-26T02:04:48;9.50;94.60
43920;DHT22;29578;51.946;5.874;2022-12-26T02:07:32;9.50;94.30
43920;DHT22;29578;51.946;5.874;2022-12-26T02:09:59;9.50;94.30
43920;DHT22;29578;51.946;5.874;2022-12-26T02:12:29;9.50;94.30
43920;DHT22;29578;51.946;5.874;2022-12-26T02:14:57;9.50;94.30
43920;DHT22;29578;51.946;5.874;2022-12-26T02:17:24;9.50;94.30
43920;DHT22;29578;51.946;5.874;2022-12-26T02:20:12;9.60;94.30
43920;DHT22;29578;51.946;5.874;2022-12-26T02:22:55;9.50;94.30
43920;DHT22;29578;51.946;5.874;2022-12-26T02:25:50;9.50;94.30
43920;DHT22;29578;51.946;5.874;2022-12-26T02:31:42;9.50;94.30
43920;DHT22;29578;51.946;5.874;2022-12-26T02:34:16;9.50;94.30
43920;DHT22;29578;51.946;5.874;2022-12-26T02:37:07;9.60;94.30
43920;DHT22;29578;51.946;5.874;2022-12-26T02:42:50;9.40;94.30
43920;DHT22;29578;51.946;5.874;2022-12-26T02:51:55;9.50;94.20
43920;DHT22;29578;51.946;5.874;2022-12-26T02:57:53;9.50;94.20
43920;DHT22;29578;51.946;5.874;2022-12-26T03:00:35;9.50;94.30
43920;DHT22;29578;51.946;5.874;2022-12-26T03:03:18;9.50;94.20
43920;DHT22;29578;51.946;5.874;2022-12-26T03:06:22;9.40;94.30
43920;DHT22;29578;51.946;5.874;2022-12-26T03:09:08;9.40;94.30
43920;DHT22;29578;51.946;5.874;2022-12-26T03:11:58;9.40;94.30
43920;DHT22;29578;51.946;5.874;2022-12-26T03:14:49;9.40;94.30
43920;DHT22;29578;51.946;5.874;2022-12-26T03:17:25;9.40;94.20
43920;DHT22;29578;51.946;5.874;2022-12-26T03:20:03;9.40;94.20
43920;DHT22;29578;51.946;5.874;2022-12-26T03:25:13;9.30;94.20
43920;DHT22;29578;51.946;5.874;2022-12-26T03:28:00;9.30;94.20
43920;DHT22;29578;51.946;5.874;2022-12-26T03:30:25;9.30;94.20
43920;DHT22;29578;51.946;5.874;2022-12-26T03:33:10;9.30;94.30
43920;DHT22;29578;51.946;5.874;2022-12-26T03:35:50;9.30;94.30
43920;DHT22;29578;51.946;5.874;2022-12-26T03:38:21;9.30;94.40
43920;DHT22;29578;51.946;5.874;2022-12-26T03:40:52;9.20;94.40
43920;DHT22;29578;51.946;5.874;2022-12-26T03:43:47;9.20;94.40
43920;DHT22;29578;51.946;5.874;2022-12-26T03:46:47;9.20;94.60
43920;DHT22;29578;51.946;5.874;2022-12-26T03:49:35;9.40;94.40
43920;DHT22;29578;51.946;5.874;2022-12-26T03:52:46;9.30;94.40
43920;DHT22;29578;51.946;5.874;2022-12-26T03:55:46;9.30;94.40
43920;DHT22;29578;51.946;5.874;2022-12-26T03:58:41;9.30;94.30
43920;DHT22;29578;51.946;5.874;2022-12-26T04:01:24;9.30;94.30
43920;DHT22;29578;51.946;5.874;2022-12-26T04:04:03;9.30;94.30
43920;DHT22;29578;51.946;5.874;2022-12-26T04:06:49;9.30;94.30
43920;DHT22;29578;51.946;5.874;2022-12-26T04:09:40;9.30;94.30
43920;DHT22;29578;51.946;5.874;2022-12-26T04:12:25;9.30;94.30
43920;DHT22;29578;51.946;5.874;2022-12-26T04:15:10;9.30;94.20
43920;DHT22;29578;51.946;5.874;2022-12-26T04:17:58;9.30;94.20
43920;DHT22;29578;51.946;5.874;2022-12-26T04:21:25;9.40;94.20
43920;DHT22;29578;51.946;5.874;2022-12-26T04:24:11;9.40;94.20
43920;DHT22;29578;51.946;5.874;2022-12-26T04:26:56;9.40;94.20
43920;DHT22;29578;51.946;5.874;2022-12-26T04:29:33;9.40;94.20
43920;DHT22;29578;51.946;5.874;2022-12-26T04:32:29;9.50;94.20
43920;DHT22;29578;51.946;5.874;2022-12-26T04:35:27;9.50;94.10
43920;DHT22;29578;51.946;5.874;2022-12-26T04:38:09;9.50;94.10
43920;DHT22;29578;51.946;5.874;2022-12-26T04:40:55;9.40;94.10
43920;DHT22;29578;51.946;5.874;2022-12-26T04:43:39;9.50;94.10
43920;DHT22;29578;51.946;5.874;2022-12-26T04:46:20;9.50;94.10
43920;DHT22;29578;51.946;5.874;2022-12-26T04:48:49;9.50;94.10
43920;DHT22;29578;51.946;5.874;2022-12-26T04:51:29;9.40;94.10
43920;DHT22;29578;51.946;5.874;2022-12-26T04:53:54;9.40;94.10
43920;DHT22;29578;51.946;5.874;2022-12-26T04:56:20;9.40;94.10
43920;DHT22;29578;51.946;5.874;2022-12-26T04:58:46;9.40;94.10
43920;DHT22;29578;51.946;5.874;2022-12-26T05:01:11;9.40;94.10
43920;DHT22;29578;51.946;5.874;2022-12-26T05:03:50;9.40;94.10
43920;DHT22;29578;51.946;5.874;2022-12-26T05:06:30;9.40;94.10
43920;DHT22;29578;51.946;5.874;2022-12-26T05:09:10;9.30;94.20
43920;DHT22;29578;51.946;5.874;2022-12-26T05:11:57;9.30;94.20
43920;DHT22;29578;51.946;5.874;2022-12-26T05:14:22;9.30;94.20
43920;DHT22;29578;51.946;5.874;2022-12-26T05:16:48;9.30;94.20
43920;DHT22;29578;51.946;5.874;2022-12-26T05:19:31;9.30;94.20
43920;DHT22;29578;51.946;5.874;2022-12-26T05:22:11;9.30;94.20
43920;DHT22;29578;51.946;5.874;2022-12-26T05:24:51;9.30;94.10
43920;DHT22;29578;51.946;5.874;2022-12-26T05:27:37;9.30;94.10
43920;DHT22;29578;51.946;5.874;2022-12-26T05:30:22;9.30;94.10
43920;DHT22;29578;51.946;5.874;2022-12-26T05:32:48;9.30;94.10
43920;DHT22;29578;51.946;5.874;2022-12-26T05:35:33;9.30;94.10
43920;DHT22;29578;51.946;5.874;2022-12-26T05:37:58;9.20;94.10
43920;DHT22;29578;51.946;5.874;2022-12-26T05:40:24;9.20;94.10
43920;DHT22;29578;51.946;5.874;2022-12-26T05:42:50;9.20;94.10
43920;DHT22;29578;51.946;5.874;2022-12-26T05:45:15;9.20;94.10
43920;DHT22;29578;51.946;5.874;2022-12-26T05:47:41;9.20;94.10
43920;DHT22;29578;51.946;5.874;2022-12-26T05:50:07;9.20;94.10
43920;DHT22;29578;51.946;5.874;2022-12-26T05:52:33;9.20;94.10
43920;DHT22;29578;51.946;5.874;2022-12-26T05:54:58;9.20;94.10
43920;DHT22;29578;51.946;5.874;2022-12-26T05:57:24;9.10;94.10
43920;DHT22;29578;51.946;5.874;2022-12-26T05:59:49;9.10;94.10
43920;DHT22;29578;51.946;5.874;2022-12-26T06:02:15;9.10;94.10
43920;DHT22;29578;51.946;5.874;2022-12-26T06:04:41;9.10;94.10
43920;DHT22;29578;51.946;5.874;2022-12-26T06:07:06;9.10;94.10
43920;DHT22;29578;51.946;5.874;2022-12-26T06:09:32;9.10;94.20
43920;DHT22;29578;51.946;5.874;2022-12-26T06:11:58;9.10;94.10
43920;DHT22;29578;51.946;5.874;2022-12-26T06:14:23;9.10;94.10
43920;DHT22;29578;51.946;5.874;2022-12-26T06:16:49;9.10;94.10
43920;DHT22;29578;51.946;5.874;2022-12-26T06:19:14;9.00;94.10
43920;DHT22;29578;51.946;5.874;2022-12-26T06:21:40;9.10;94.10
43920;DHT22;29578;51.946;5.874;2022-12-26T06:24:06;9.00;94.10
43920;DHT22;29578;51.946;5.874;2022-12-26T06:26:31;9.00;94.10
43920;DHT22;29578;51.946;5.874;2022-12-26T06:28:57;9.00;94.10
43920;DHT22;29578;51.946;5.874;2022-12-26T06:31:23;9.00;94.10
43920;DHT22;29578;51.946;5.874;2022-12-26T06:33:51;9.00;94.20
43920;DHT22;29578;51.946;5.874;2022-12-26T06:36:20;9.00;94.20
43920;DHT22;29578;51.946;5.874;2022-12-26T06:38:46;9.00;94.20
43920;DHT22;29578;51.946;5.874;2022-12-26T06:41:14;8.90;94.10
43920;DHT22;29578;51.946;5.874;2022-12-26T06:43:40;8.90;94.20
43920;DHT22;29578;51.946;5.874;2022-12-26T06:46:08;8.90;94.20
43920;DHT22;29578;51.946;5.874;2022-12-26T06:48:34;8.90;94.20
43920;DHT22;29578;51.946;5.874;2022-12-26T06:51:11;8.90;94.20
43920;DHT22;29578;51.946;5.874;2022-12-26T06:53:38;8.80;94.20
43920;DHT22;29578;51.946;5.874;2022-12-26T06:56:06;8.80;94.20
43920;DHT22;29578;51.946;5.874;2022-12-26T06:58:32;8.80;94.20
43920;DHT22;29578;51.946;5.874;2022-12-26T07:01:15;8.80;94.20
43920;DHT22;29578;51.946;5.874;2022-12-26T07:03:41;8.90;94.30
43920;DHT22;29578;51.946;5.874;2022-12-26T07:06:12;8.70;94.20
43920;DHT22;29578;51.946;5.874;2022-12-26T07:08:41;8.80;94.20
43920;DHT22;29578;51.946;5.874;2022-12-26T07:11:15;8.70;94.10
43920;DHT22;29578;51.946;5.874;2022-12-26T07:13:42;8.80;94.20
43920;DHT22;29578;51.946;5.874;2022-12-26T07:16:09;8.80;94.20
43920;DHT22;29578;51.946;5.874;2022-12-26T07:18:35;8.80;94.10
43920;DHT22;29578;51.946;5.874;2022-12-26T07:21:10;8.80;94.10
43920;DHT22;29578;51.946;5.874;2022-12-26T07:23:36;8.80;94.20
43920;DHT22;29578;51.946;5.874;2022-12-26T07:26:02;8.70;94.10
43920;DHT22;29578;51.946;5.874;2022-12-26T07:28:28;8.70;94.10
43920;DHT22;29578;51.946;5.874;2022-12-26T07:30:54;8.70;94.10
43920;DHT22;29578;51.946;5.874;2022-12-26T07:33:22;8.70;94.10
43920;DHT22;29578;51.946;5.874;2022-12-26T07:35:48;8.70;94.20
43920;DHT22;29578;51.946;5.874;2022-12-26T07:38:14;8.70;94.10
43920;DHT22;29578;51.946;5.874;2022-12-26T07:40:40;8.70;94.10
43920;DHT22;29578;51.946;5.874;2022-12-26T07:43:05;8.70;94.10
43920;DHT22;29578;51.946;5.874;2022-12-26T07:45:31;8.80;94.10
43920;DHT22;29578;51.946;5.874;2022-12-26T07:47:57;8.70;94.10
43920;DHT22;29578;51.946;5.874;2022-12-26T07:50:24;8.70;94.10
43920;DHT22;29578;51.946;5.874;2022-12-26T07:52:50;8.80;94.40
43920;DHT22;29578;51.946;5.874;2022-12-26T07:55:16;8.80;94.10
43920;DHT22;29578;51.946;5.874;2022-12-26T07:57:41;8.90;94.10
43920;DHT22;29578;51.946;5.874;2022-12-26T08:00:08;8.80;94.00
43920;DHT22;29578;51.946;5.874;2022-12-26T08:02:34;8.90;94.00
43920;DHT22;29578;51.946;5.874;2022-12-26T08:05:00;8.80;94.00
43920;DHT22;29578;51.946;5.874;2022-12-26T08:07:25;8.90;94.00
43920;DHT22;29578;51.946;5.874;2022-12-26T08:09:51;8.90;94.00
43920;DHT22;29578;51.946;5.874;2022-12-26T08:12:17;8.90;94.00
43920;DHT22;29578;51.946;5.874;2022-12-26T08:14:46;8.90;93.90
43920;DHT22;29578;51.946;5.874;2022-12-26T08:17:12;9.00;93.90
43920;DHT22;29578;51.946;5.874;2022-12-26T08:19:38;9.00;93.90
43920;DHT22;29578;51.946;5.874;2022-12-26T08:22:04;9.00;93.80
43920;DHT22;29578;51.946;5.874;2022-12-26T08:24:29;9.10;93.80
43920;DHT22;29578;51.946;5.874;2022-12-26T08:26:55;9.10;93.80
43920;DHT22;29578;51.946;5.874;2022-12-26T08:29:21;9.10;93.80
43920;DHT22;29578;51.946;5.874;2022-12-26T08:31:47;9.20;93.80
43920;DHT22;29578;51.946;5.874;2022-12-26T08:34:12;9.20;93.70
43920;DHT22;29578;51.946;5.874;2022-12-26T08:36:38;9.30;93.70
43920;DHT22;29578;51.946;5.874;2022-12-26T08:39:04;9.30;93.70
43920;DHT22;29578;51.946;5.874;2022-12-26T08:41:30;9.30;93.70
43920;DHT22;29578;51.946;5.874;2022-12-26T08:43:56;9.30;93.60
43920;DHT22;29578;51.946;5.874;2022-12-26T08:46:21;9.30;93.60
43920;DHT22;29578;51.946;5.874;2022-12-26T08:48:48;9.30;93.60
43920;DHT22;29578;51.946;5.874;2022-12-26T08:51:18;9.30;93.60
43920;DHT22;29578;51.946;5.874;2022-12-26T08:53:44;9.30;93.70
43920;DHT22;29578;51.946;5.874;2022-12-26T08:56:13;9.30;93.60
43920;DHT22;29578;51.946;5.874;2022-12-26T08:58:40;9.40;93.70
43920;DHT22;29578;51.946;5.874;2022-12-26T09:01:11;9.40;93.70
43920;DHT22;29578;51.946;5.874;2022-12-26T09:03:38;9.40;93.60
43920;DHT22;29578;51.946;5.874;2022-12-26T09:06:04;9.50;93.60
43920;DHT22;29578;51.946;5.874;2022-12-26T09:08:31;9.50;93.60
43920;DHT22;29578;51.946;5.874;2022-12-26T09:11:07;9.60;93.60
43920;DHT22;29578;51.946;5.874;2022-12-26T09:13:35;9.60;93.50
43920;DHT22;29578;51.946;5.874;2022-12-26T09:16:07;9.70;93.50
43920;DHT22;29578;51.946;5.874;2022-12-26T09:18:33;9.70;93.50
43920;DHT22;29578;51.946;5.874;2022-12-26T09:21:00;9.80;93.40
43920;DHT22;29578;51.946;5.874;2022-12-26T09:23:26;9.90;93.40
43920;DHT22;29578;51.946;5.874;2022-12-26T09:25:52;9.90;93.30
43920;DHT22;29578;51.946;5.874;2022-12-26T09:28:17;10.00;93.30
43920;DHT22;29578;51.946;5.874;2022-12-26T09:30:43;10.00;93.30
43920;DHT22;29578;51.946;5.874;2022-12-26T09:33:09;10.00;93.20
43920;DHT22;29578;51.946;5.874;2022-12-26T09:35:38;10.10;93.20
43920;DHT22;29578;51.946;5.874;2022-12-26T09:38:04;10.10;93.20
43920;DHT22;29578;51.946;5.874;2022-12-26T09:40:35;10.10;93.10
43920;DHT22;29578;51.946;5.874;2022-12-26T09:43:18;10.20;93.10
43920;DHT22;29578;51.946;5.874;2022-12-26T09:45:57;10.20;93.00
43920;DHT22;29578;51.946;5.874;2022-12-26T09:48:36;10.20;93.00
43920;DHT22;29578;51.946;5.874;2022-12-26T09:51:03;10.20;93.00
43920;DHT22;29578;51.946;5.874;2022-12-26T09:53:32;10.30;93.10
43920;DHT22;29578;51.946;5.874;2022-12-26T09:56:03;10.10;93.00
43920;DHT22;29578;51.946;5.874;2022-12-26T09:58:40;10.20;93.10
43920;DHT22;29578;51.946;5.874;2022-12-26T10:01:28;10.10;93.00
43920;DHT22;29578;51.946;5.874;2022-12-26T10:03:56;10.20;93.00
43920;DHT22;29578;51.946;5.874;2022-12-26T10:06:26;10.10;93.10
43920;DHT22;29578;51.946;5.874;2022-12-26T10:12:12;10.00;93.20
43920;DHT22;29578;51.946;5.874;2022-12-26T10:14:58;9.90;93.20
43920;DHT22;29578;51.946;5.874;2022-12-26T10:17:37;9.90;93.30
43920;DHT22;29578;51.946;5.874;2022-12-26T10:20:17;9.80;93.20
43920;DHT22;29578;51.946;5.874;2022-12-26T10:23:08;9.70;93.30
43920;DHT22;29578;51.946;5.874;2022-12-26T10:25:46;9.70;93.40
43920;DHT22;29578;51.946;5.874;2022-12-26T10:28:28;9.60;93.40
43920;DHT22;29578;51.946;5.874;2022-12-26T10:30:59;9.50;93.50
43920;DHT22;29578;51.946;5.874;2022-12-26T10:36:32;9.50;93.50
43920;DHT22;29578;51.946;5.874;2022-12-26T10:39:02;9.50;93.60
43920;DHT22;29578;51.946;5.874;2022-12-26T10:41:37;9.60;93.60
43920;DHT22;29578;51.946;5.874;2022-12-26T10:44:09;9.60;93.50
43920;DHT22;29578;51.946;5.874;2022-12-26T10:49:24;9.50;93.50
43920;DHT22;29578;51.946;5.874;2022-12-26T10:51:53;9.50;93.50
43920;DHT22;29578;51.946;5.874;2022-12-26T10:54:19;9.50;93.50
43920;DHT22;29578;51.946;5.874;2022-12-26T10:56:48;9.50;93.50
43920;DHT22;29578;51.946;5.874;2022-12-26T10:59:19;9.50;93.50
43920;DHT22;29578;51.946;5.874;2022-12-26T11:01:45;9.50;93.60
43920;DHT22;29578;51.946;5.874;2022-12-26T11:04:22;9.40;93.50
43920;DHT22;29578;51.946;5.874;2022-12-26T11:06:51;9.20;93.50
43920;DHT22;29578;51.946;5.874;2022-12-26T11:09:34;9.20;93.60
43920;DHT22;29578;51.946;5.874;2022-12-26T11:14:45;8.90;93.60
43920;DHT22;29578;51.946;5.874;2022-12-26T11:17:23;8.90;93.70
43920;DHT22;29578;51.946;5.874;2022-12-26T11:20:25;8.90;93.70
43920;DHT22;29578;51.946;5.874;2022-12-26T11:22:51;8.90;93.70
43920;DHT22;29578;51.946;5.874;2022-12-26T11:25:26;8.90;93.70
43920;DHT22;29578;51.946;5.874;2022-12-26T11:27:56;8.80;93.60
43920;DHT22;29578;51.946;5.874;2022-12-26T11:30:31;8.80;93.60
43920;DHT22;29578;51.946;5.874;2022-12-26T11:33:17;8.80;93.60
43920;DHT22;29578;51.946;5.874;2022-12-26T11:36:09;8.70;93.60
43920;DHT22;29578;51.946;5.874;2022-12-26T11:38:50;8.70;93.60
43920;DHT22;29578;51.946;5.874;2022-12-26T11:41:33;8.70;93.60
43920;DHT22;29578;51.946;5.874;2022-12-26T11:44:21;8.70;93.50
43920;DHT22;29578;51.946;5.874;2022-12-26T11:46:53;8.70;93.50
43920;DHT22;29578;51.946;5.874;2022-12-26T11:49:33;8.70;93.40
43920;DHT22;29578;51.946;5.874;2022-12-26T11:52:02;8.60;93.30
43920;DHT22;29578;51.946;5.874;2022-12-26T11:54:48;8.60;93.30
43920;DHT22;29578;51.946;5.874;2022-12-26T11:57:20;8.50;93.20
43920;DHT22;29578;51.946;5.874;2022-12-26T11:59:47;8.40;93.20
43920;DHT22;29578;51.946;5.874;2022-12-26T12:02:18;8.40;93.30
43920;DHT22;29578;51.946;5.874;2022-12-26T12:04:46;8.40;93.20
43920;DHT22;29578;51.946;5.874;2022-12-26T12:07:27;8.30;93.20
43920;DHT22;29578;51.946;5.874;2022-12-26T12:10:36;8.30;93.20
43920;DHT22;29578;51.946;5.874;2022-12-26T12:13:12;8.40;93.30
43920;DHT22;29578;51.946;5.874;2022-12-26T12:15:50;8.30;93.20
43920;DHT22;29578;51.946;5.874;2022-12-26T12:18:29;8.20;93.10
43920;DHT22;29578;51.946;5.874;2022-12-26T12:21:19;8.20;93.10
43920;DHT22;29578;51.946;5.874;2022-12-26T12:26:51;8.20;93.10
43920;DHT22;29578;51.946;5.874;2022-12-26T12:29:34;8.10;93.00
43920;DHT22;29578;51.946;5.874;2022-12-26T12:32:10;8.20;93.00
43920;DHT22;29578;51.946;5.874;2022-12-26T12:38:06;8.20;92.80
43920;DHT22;29578;51.946;5.874;2022-12-26T12:43:46;8.10;92.80
43920;DHT22;29578;51.946;5.874;2022-12-26T12:46:22;8.00;92.80
43920;DHT22;29578;51.946;5.874;2022-12-26T12:49:02;7.90;92.70
43920;DHT22;29578;51.946;5.874;2022-12-26T12:51:38;7.90;92.80
43920;DHT22;29578;51.946;5.874;2022-12-26T12:54:25;7.90;92.80
43920;DHT22;29578;51.946;5.874;2022-12-26T12:57:07;7.90;92.80
43920;DHT22;29578;51.946;5.874;2022-12-26T12:59:45;7.90;92.70
43920;DHT22;29578;51.946;5.874;2022-12-26T13:02:31;7.90;92.70
43920;DHT22;29578;51.946;5.874;2022-12-26T13:05:06;7.90;92.60
43920;DHT22;29578;51.946;5.874;2022-12-26T13:07:39;7.90;92.60
43920;DHT22;29578;51.946;5.874;2022-12-26T13:10:17;7.90;92.50
43920;DHT22;29578;51.946;5.874;2022-12-26T13:12:45;7.80;92.60
43920;DHT22;29578;51.946;5.874;2022-12-26T13:15:23;7.80;92.60
43920;DHT22;29578;51.946;5.874;2022-12-26T13:17:57;7.80;92.60
43920;DHT22;29578;51.946;5.874;2022-12-26T13:20:39;7.90;92.60
43920;DHT22;29578;51.946;5.874;2022-12-26T13:23:30;7.80;92.60
43920;DHT22;29578;51.946;5.874;2022-12-26T13:26:13;7.90;92.60
43920;DHT22;29578;51.946;5.874;2022-12-26T13:29:15;7.90;92.50
43920;DHT22;29578;51.946;5.874;2022-12-26T13:31:43;7.90;92.40
43920;DHT22;29578;51.946;5.874;2022-12-26T13:34:14;7.80;92.40
43920;DHT22;29578;51.946;5.874;2022-12-26T13:36:44;7.90;92.40
43920;DHT22;29578;51.946;5.874;2022-12-26T13:42:16;7.90;92.30
43920;DHT22;29578;51.946;5.874;2022-12-26T13:50:47;7.70;92.20
43920;DHT22;29578;51.946;5.874;2022-12-26T13:53:29;7.80;92.20
43920;DHT22;29578;51.946;5.874;2022-12-26T13:55:57;7.60;92.20
43920;DHT22;29578;51.946;5.874;2022-12-26T14:05:37;7.50;92.20
43920;DHT22;29578;51.946;5.874;2022-12-26T14:07:45;7.40;92.10
43920;DHT22;29578;51.946;5.874;2022-12-26T14:10:23;7.30;92.10
43920;DHT22;29578;51.946;5.874;2022-12-26T14:13:16;7.30;92.10
43920;DHT22;29578;51.946;5.874;2022-12-26T14:16:02;7.30;92.10
43920;DHT22;29578;51.946;5.874;2022-12-26T14:18:42;7.20;92.00
43920;DHT22;29578;51.946;5.874;2022-12-26T14:21:27;7.20;92.00
43920;DHT22;29578;51.946;5.874;2022-12-26T14:30:11;7.10;92.10
43920;DHT22;29578;51.946;5.874;2022-12-26T14:32:59;7.10;92.00
43920;DHT22;29578;51.946;5.874;2022-12-26T14:35:36;7.10;92.00
43920;DHT22;29578;51.946;5.874;2022-12-26T14:38:28;7.10;92.00
43920;DHT22;29578;51.946;5.874;2022-12-26T14:41:07;7.00;92.10
43920;DHT22;29578;51.946;5.874;2022-12-26T14:43:37;7.10;92.20
43920;DHT22;29578;51.946;5.874;2022-12-26T14:46:53;7.20;91.90
43920;DHT22;29578;51.946;5.874;2022-12-26T14:48:58;7.30;91.70
43920;DHT22;29578;51.946;5.874;2022-12-26T14:51:29;7.40;91.50
43920;DHT22;29578;51.946;5.874;2022-12-26T14:56:55;7.20;91.50
43920;DHT22;29578;51.946;5.874;2022-12-26T14:59:27;7.10;91.60
43920;DHT22;29578;51.946;5.874;2022-12-26T15:05:12;7.10;91.70
43920;DHT22;29578;51.946;5.874;2022-12-26T15:08:03;7.00;91.60
43920;DHT22;29578;51.946;5.874;2022-12-26T15:13:41;6.90;91.70
43920;DHT22;29578;51.946;5.874;2022-12-26T15:16:27;6.80;91.60
43920;DHT22;29578;51.946;5.874;2022-12-26T15:22:15;6.70;91.70
43920;DHT22;29578;51.946;5.874;2022-12-26T15:28:19;6.60;91.70
43920;DHT22;29578;51.946;5.874;2022-12-26T15:31:09;6.50;91.70
43920;DHT22;29578;51.946;5.874;2022-12-26T15:33:48;6.40;91.80
43920;DHT22;29578;51.946;5.874;2022-12-26T15:36:42;6.40;91.90
43920;DHT22;29578;51.946;5.874;2022-12-26T15:39:25;6.30;91.90
43920;DHT22;29578;51.946;5.874;2022-12-26T15:42:19;6.30;92.00
43920;DHT22;29578;51.946;5.874;2022-12-26T15:45:19;6.10;92.00
43920;DHT22;29578;51.946;5.874;2022-12-26T15:50:55;6.10;92.00
43920;DHT22;29578;51.946;5.874;2022-12-26T15:53:47;6.00;92.00
43920;DHT22;29578;51.946;5.874;2022-12-26T15:56:43;5.90;92.00
43920;DHT22;29578;51.946;5.874;2022-12-26T15:59:36;5.90;92.10
43920;DHT22;29578;51.946;5.874;2022-12-26T16:05:33;5.80;92.20
43920;DHT22;29578;51.946;5.874;2022-12-26T16:08:27;5.70;92.20
43920;DHT22;29578;51.946;5.874;2022-12-26T16:11:15;5.50;92.10
43920;DHT22;29578;51.946;5.874;2022-12-26T16:13:55;5.50;92.20
43920;DHT22;29578;51.946;5.874;2022-12-26T16:16:28;5.50;92.20
43920;DHT22;29578;51.946;5.874;2022-12-26T16:18:54;5.40;92.20
43920;DHT22;29578;51.946;5.874;2022-12-26T16:21:21;5.40;92.20
43920;DHT22;29578;51.946;5.874;2022-12-26T16:23:59;5.30;92.20
43920;DHT22;29578;51.946;5.874;2022-12-26T16:26:27;5.30;92.20
43920;DHT22;29578;51.946;5.874;2022-12-26T16:28:54;5.30;92.20
43920;DHT22;29578;51.946;5.874;2022-12-26T16:31:23;5.20;92.20
43920;DHT22;29578;51.946;5.874;2022-12-26T16:33:51;5.10;92.30
43920;DHT22;29578;51.946;5.874;2022-12-26T16:36:22;5.10;92.30
43920;DHT22;29578;51.946;5.874;2022-12-26T16:38:49;5.00;92.30
43920;DHT22;29578;51.946;5.874;2022-12-26T16:41:22;4.90;92.30
43920;DHT22;29578;51.946;5.874;2022-12-26T16:43:48;4.90;92.30
43920;DHT22;29578;51.946;5.874;2022-12-26T16:46:15;4.80;92.30
43920;DHT22;29578;51.946;5.874;2022-12-26T16:48:47;4.80;92.40
43920;DHT22;29578;51.946;5.874;2022-12-26T16:51:37;4.70;92.40
43920;DHT22;29578;51.946;5.874;2022-12-26T16:54:29;4.70;92.40
43920;DHT22;29578;51.946;5.874;2022-12-26T16:57:11;4.60;92.40
43920;DHT22;29578;51.946;5.874;2022-12-26T16:59:56;4.60;92.40
43920;DHT22;29578;51.946;5.874;2022-12-26T17:02:26;4.60;92.40
43920;DHT22;29578;51.946;5.874;2022-12-26T17:05:04;4.50;92.40
43920;DHT22;29578;51.946;5.874;2022-12-26T17:07:43;4.50;92.30
43920;DHT22;29578;51.946;5.874;2022-12-26T17:10:18;4.50;92.30
43920;DHT22;29578;51.946;5.874;2022-12-26T17:12:46;4.40;92.60
43920;DHT22;29578;51.946;5.874;2022-12-26T17:15:23;4.30;92.30
43920;DHT22;29578;51.946;5.874;2022-12-26T17:17:49;4.30;92.30
43920;DHT22;29578;51.946;5.874;2022-12-26T17:20:32;4.30;92.30
43920;DHT22;29578;51.946;5.874;2022-12-26T17:22:59;4.20;92.30
43920;DHT22;29578;51.946;5.874;2022-12-26T17:25:44;4.20;92.30
43920;DHT22;29578;51.946;5.874;2022-12-26T17:28:21;4.20;92.40
43920;DHT22;29578;51.946;5.874;2022-12-26T17:30:48;4.20;92.40
43920;DHT22;29578;51.946;5.874;2022-12-26T17:33:18;4.10;92.40
43920;DHT22;29578;51.946;5.874;2022-12-26T17:35:49;4.10;92.40
43920;DHT22;29578;51.946;5.874;2022-12-26T17:38:20;4.10;92.30
43920;DHT22;29578;51.946;5.874;2022-12-26T17:40:46;4.00;92.30
43920;DHT22;29578;51.946;5.874;2022-12-26T17:43:34;4.10;92.30
43920;DHT22;29578;51.946;5.874;2022-12-26T17:46:01;4.00;92.30
43920;DHT22;29578;51.946;5.874;2022-12-26T17:48:27;4.10;92.30
43920;DHT22;29578;51.946;5.874;2022-12-26T17:51:00;4.00;92.30
43920;DHT22;29578;51.946;5.874;2022-12-26T17:53:29;4.00;92.30
43920;DHT22;29578;51.946;5.874;2022-12-26T17:55:59;4.00;92.20